Terminal Aerodrome Forecast
Issued by NWS

Home | Current Version | Previous Version | Text Only | Print | Product List | Glossary On
Versions: 1 2 3 4 5 6 7 8 9 10 11 12 13 14 15 16 17 18 19 20 21 22 23 24 25 26 27 28 29 30 31 32 33 34 35 36 37 38
237
FTAK31 PANC 271204 AAA
TAFAHO
TAF AMD
PAHO 271204Z 2712/2812 VRB03KT 3SM BR SCT001
      TEMPO 2712/2715 1SM BR
     FM271500 VRB05KT P6SM SCT120
     FM271800 25008KT P6SM SCT120
     FM280300 31008KT P6SM SCT200=

USA.gov is the U.S. government's official web portal to all federal, state and local government web resources and services.